Terminal Aerodrome Forecast
Issued by NWS Duluth, MN

Home | Current Version | Previous Version | Text Only | Print | Product List | Glossary On
Versions: 1 2 3 4 5 6 7 8 9 10 11 12 13 14 15 16 17 18 19 20 21
000
FTUS43 KDLH 181739
TAFINL
TAF
KINL 181739Z 1818/1918 08010KT 1/2SM SN OVC012
     FM182000 04010KT 2SM -SN OVC015
     FM182200 03010KT 5SM -SN BKN025
     FM190000 01008KT P6SM SCT025
     FM191500 03010KT P6SM BKN200=

USA.gov is the U.S. government's official web portal to all federal, state and local government web resources and services.